KABR/ABR METAR and TAF weather

Enter ICAO airport designator
Station Type Date Time Source
KABR METAR 2020/11/28 19:53 UTC NOAA

KABR 281953Z AUTO 22013KT 10SM CLR 15/M06 A2984 RMK AO2 SLP113 T01501056


Station Type Date Time Source
KABR Decoded METAR 2020/11/28 19:53 UTC NOAA

ABERDEEN REGIONAL AIRPORT, SD, United States (KABR) 45-27N 098-25W 400M
Nov 28, 2020 - 02:53 PM EST / 2020.11.28 1953 UTC
Wind: from the SW (220 degrees) at 15 MPH (13 KT):0
Visibility: 10 mile(s):0
Sky conditions: clear
Temperature: 59.0 F (15.0 C)
Dew Point: 21.9 F (-5.6 C)
Relative Humidity: 23%
Pressure (altimeter): 29.84 in. Hg (1010 hPa)
ob: KABR 281953Z AUTO 22013KT 10SM CLR 15/M06 A2984 RMK AO2 SLP113 T01501056
cycle: 20

Station Type Date Time Source
KABR TAF 2020/11/28 18:27 UTC NOAA

TAF KABR 281724Z 2818/2918 22009KT P6SM SKC
FM290600 32017G24KT P6SM SCT250

Example: see airport list